Pongnae — 3FDZ8 — position and weather

sailwx.info

Track history (hours):
 
Tides and Currents Weather Stations Pressure Air Temp Water Temp Dewpoint Dewpoint Depression Visibility Wind Speed Wind Dir Waves Ship Positions

Pongnae

Operator: V Ships Leisure SAM

Last reported at 2015-Jan-30 08:32 UTC. Time now 2015-Jan-30 09:26 UTC.
Position N 22°18' E 114°13'.

Length 171 m; draft 6.6 m.

Type: Passenger vessel. MMSI: 353669000.

Date/timePositionNaut miles runAvg speedWind from/ knotsBaromVisibWave heightAir tempDewpointWater temp
2015-Jan-30 08:32N 22°18' E 114°13'0 0.0
2015-Jan-30 07:31N 22°18' E 114°13'0 0.0
2015-Jan-30 06:31N 22°18' E 114°13'0 0.0
2015-Jan-30 05:31N 22°18' E 114°13'0 0.1
2015-Jan-30 04:31N 22°18' E 114°13'0 0.1
2015-Jan-30 03:31N 22°18' E 114°13'0 0.0
2015-Jan-30 02:31N 22°18' E 114°13'0 0.0
2015-Jan-30 01:31N 22°18' E 114°13'0 0.1
2015-Jan-30 00:31N 22°18' E 114°13'1 1.0
2015-Jan-29 23:34N 22°17' E 114°14'8 8.0
2015-Jan-29 22:31N 22°11' E 114°20'2 0.2
2015-Jan-29 13:14N 22°12' E 114°19'710.8
2015-Jan-29 12:33N 22°18' E 114°13'0 0.3
2015-Jan-29 11:31N 22°18' E 114°13'0 0.0
2015-Jan-29 10:31N 22°18' E 114°13'0 0.0
2015-Jan-29 09:31N 22°18' E 114°13'0 0.1
2015-Jan-29 08:31N 22°18' E 114°13'0 0.1
2015-Jan-29 07:31N 22°18' E 114°13'0 0.0
2015-Jan-29 06:28N 22°18' E 114°13'0 0.0
2015-Jan-29 05:31N 22°18' E 114°13'0 0.0
2015-Jan-29 04:31N 22°18' E 114°13'0 0.0
2015-Jan-29 03:31N 22°18' E 114°13'0 0.0
2015-Jan-29 02:31N 22°18' E 114°13'0 0.0
2015-Jan-29 01:31N 22°18' E 114°13'0 0.0
2015-Jan-29 00:31N 22°18' E 114°13'1 1.0
2015-Jan-28 23:33N 22°17' E 114°14'13 2.4
2015-Jan-28 18:07N 22°04' E 114°17'0 0.0
2015-Jan-28 16:24N 22°04' E 114°17'7 2.5
2015-Jan-28 13:26N 22°12' E 114°19'8 9.1
2015-Jan-28 12:33N 22°18' E 114°13'0 0.0
2015-Jan-28 11:33N 22°18' E 114°13'0 0.0
2015-Jan-28 10:32N 22°18' E 114°13'0 0.0
2015-Jan-28 09:32N 22°18' E 114°13'0 0.0
2015-Jan-28 08:32N 22°18' E 114°13'0 0.0
2015-Jan-28 07:32N 22°18' E 114°13'0 0.0
2015-Jan-28 06:32N 22°18' E 114°13'0 0.0
2015-Jan-28 05:32N 22°18' E 114°13'0 0.0
2015-Jan-28 04:32N 22°18' E 114°13'0 0.0
2015-Jan-28 03:32N 22°18' E 114°13'0 0.0
2015-Jan-28 02:32N 22°18' E 114°13'0 0.0
2015-Jan-28 01:32N 22°18' E 114°13'0 0.0
2015-Jan-28 00:32N 22°18' E 114°13'1 1.0
2015-Jan-27 23:33N 22°17' E 114°14'8 8.1
2015-Jan-27 22:33N 22°11' E 114°20'6 1.8
2015-Jan-27 19:26N 22°06' E 114°18'6 1.0
2015-Jan-27 13:09N 22°12' E 114°19'712.2
2015-Jan-27 12:33N 22°17' E 114°14'1 0.5
2015-Jan-27 11:31N 22°18' E 114°13'0 0.0
2015-Jan-27 10:31N 22°18' E 114°13'0 0.0
2015-Jan-27 09:31N 22°18' E 114°13'0 0.0
2015-Jan-27 08:31N 22°18' E 114°13'0 0.0
2015-Jan-27 07:31N 22°18' E 114°13'0 0.0
2015-Jan-27 06:31N 22°18' E 114°13'0 0.0
2015-Jan-27 05:31N 22°18' E 114°13'0 0.0
2015-Jan-27 04:31N 22°18' E 114°13'0 0.0
2015-Jan-27 03:31N 22°18' E 114°13'0 0.0
2015-Jan-27 02:31N 22°18' E 114°13'0 0.0
2015-Jan-27 01:31N 22°18' E 114°13'0 0.0
2015-Jan-27 00:31N 22°18' E 114°13'1 1.0
2015-Jan-26 23:33N 22°17' E 114°14'8 7.8
2015-Jan-26 22:31N 22°11' E 114°20'2 0.2
2015-Jan-26 13:08N 22°12' E 114°18'712.0
2015-Jan-26 12:33N 22°18' E 114°14'0 0.4
2015-Jan-26 11:32N 22°18' E 114°13'0 0.0
2015-Jan-26 10:32N 22°18' E 114°13'0 0.0
2015-Jan-26 09:32N 22°18' E 114°13'0 0.0
2015-Jan-26 08:32N 22°18' E 114°13'0 0.1
2015-Jan-26 07:32N 22°18' E 114°13'0 0.1
2015-Jan-26 06:32N 22°18' E 114°13'0 0.1
2015-Jan-26 05:32N 22°18' E 114°13'0 0.0
2015-Jan-26 04:32N 22°18' E 114°13'0 0.0
2015-Jan-26 03:32N 22°18' E 114°13'0 0.0
2015-Jan-26 02:32N 22°18' E 114°13'0 0.0
2015-Jan-26 01:32N 22°18' E 114°13'0 0.0
2015-Jan-26 00:32N 22°18' E 114°13'1 1.2
2015-Jan-25 23:33N 22°17' E 114°14'9 7.5
2015-Jan-25 22:24N 22°09' E 114°18'5 0.9
2015-Jan-25 17:22N 22°05' E 114°17'7 1.8
2015-Jan-25 13:25N 22°12' E 114°19'8 9.0
2015-Jan-25 12:32N 22°18' E 114°13'0 0.0
2015-Jan-25 11:32N 22°18' E 114°13'0 0.1
2015-Jan-25 10:32N 22°18' E 114°13'0 0.0
2015-Jan-25 09:32N 22°18' E 114°13'0 0.0
2015-Jan-25 08:32N 22°18' E 114°13'0 0.0
2015-Jan-25 07:29N 22°18' E 114°13'0 0.1
2015-Jan-25 06:32N 22°18' E 114°13'0 0.0
2015-Jan-25 05:32N 22°18' E 114°13'0 0.0
2015-Jan-25 04:32N 22°18' E 114°13'0 0.1
2015-Jan-25 03:32N 22°18' E 114°13'0 0.1
2015-Jan-25 02:32N 22°18' E 114°13'0 0.0
2015-Jan-25 01:32N 22°18' E 114°13'0 0.0
2015-Jan-25 00:32N 22°18' E 114°13'1 1.1
2015-Jan-24 23:33N 22°17' E 114°14'8 7.7
2015-Jan-24 22:32N 22°11' E 114°19'1 0.1
2015-Jan-24 13:21N 22°12' E 114°19'8 9.9
2015-Jan-24 12:33N 22°18' E 114°13'0 0.0
2015-Jan-24 11:33N 22°18' E 114°13'0 0.0
2015-Jan-24 10:33N 22°18' E 114°13'0 0.1
2015-Jan-24 09:33N 22°18' E 114°13'0 0.0
2015-Jan-24 08:33N 22°18' E 114°13'0 0.0
2015-Jan-24 07:33N 22°18' E 114°13'0 0.1
2015-Jan-24 06:33N 22°18' E 114°13'0 0.0
2015-Jan-24 05:33N 22°18' E 114°13'0 0.0
2015-Jan-24 04:32N 22°18' E 114°13'0 0.0
2015-Jan-24 03:32N 22°18' E 114°13'0 0.0
2015-Jan-24 02:32N 22°18' E 114°13'0 0.0
2015-Jan-24 01:32N 22°18' E 114°13'0 0.0
2015-Jan-24 00:32N 22°18' E 114°13'1 1.2
2015-Jan-23 23:33N 22°17' E 114°14'7 0.7
2015-Jan-23 13:27N 22°12' E 114°19'8 8.9
2015-Jan-23 12:33N 22°18' E 114°13'0 0.1
2015-Jan-23 11:33N 22°18' E 114°13'0 0.0
2015-Jan-23 10:33N 22°18' E 114°13'0 0.0
2015-Jan-23 09:33N 22°18' E 114°13'0 0.1
2015-Jan-23 08:33N 22°18' E 114°13'0 0.0
2015-Jan-23 07:33N 22°18' E 114°13'0 0.0
2015-Jan-23 06:33N 22°18' E 114°13'0 0.1
2015-Jan-23 05:33N 22°18' E 114°13'0 0.0
2015-Jan-23 04:33N 22°18' E 114°13'0 0.0
2015-Jan-23 03:30N 22°18' E 114°13'0 0.0
2015-Jan-23 02:33N 22°18' E 114°13'0 0.0
2015-Jan-23 01:33N 22°18' E 114°13'0 0.0
2015-Jan-23 00:33N 22°18' E 114°13'2 2.0
2015-Jan-22 23:33N 22°17' E 114°15'7 6.9
2015-Jan-22 22:30N 22°11' E 114°19'5 3.9
2015-Jan-22 21:10N 22°06' E 114°18'0 0.0
2015-Jan-22 19:19N 22°06' E 114°18'0 0.0
2015-Jan-22 18:25N 22°06' E 114°18'0 0.0
2015-Jan-22 14:16N 22°06' E 114°18'6 6.8
2015-Jan-22 13:22N 22°12' E 114°19'8 9.4
2015-Jan-22 12:31N 22°18' E 114°13'0 0.0
2015-Jan-22 11:31N 22°18' E 114°13'0 0.1
2015-Jan-22 10:31N 22°18' E 114°13'0 0.0
2015-Jan-22 09:31N 22°18' E 114°13'0 0.0
2015-Jan-22 08:31N 22°18' E 114°13'0 0.0
2015-Jan-22 07:31N 22°18' E 114°13'0 0.1
2015-Jan-22 06:31N 22°18' E 114°13'0 0.0
2015-Jan-22 05:31N 22°18' E 114°13'0 0.1
2015-Jan-22 04:31N 22°18' E 114°13'0 0.0
2015-Jan-22 03:31N 22°18' E 114°13'0 0.0
2015-Jan-22 02:31N 22°18' E 114°13'0 0.0
2015-Jan-22 01:31N 22°18' E 114°13'0 0.0
2015-Jan-22 00:31N 22°18' E 114°13'1 0.8
2015-Jan-21 23:33N 22°17' E 114°14'1 0.1
2015-Jan-21 12:31N 22°18' E 114°13'0 0.1
2015-Jan-21 11:31N 22°18' E 114°13'0 0.0
2015-Jan-21 10:31N 22°18' E 114°13'0 0.0
2015-Jan-21 09:33N 22°18' E 114°13'0 0.1
2015-Jan-21 08:33N 22°18' E 114°13'0 0.0
2015-Jan-21 07:33N 22°18' E 114°13'0 0.1
2015-Jan-21 06:33N 22°18' E 114°13'0 0.1
2015-Jan-21 05:33N 22°18' E 114°13'0 0.0
2015-Jan-21 04:33N 22°18' E 114°13'0 0.0
2015-Jan-21 03:33N 22°18' E 114°13'0 0.1
2015-Jan-21 02:33N 22°18' E 114°13'0 0.0
2015-Jan-21 01:33N 22°18' E 114°13'0 0.0
2015-Jan-21 00:33N 22°18' E 114°13'1 1.5
2015-Jan-20 23:33N 22°17' E 114°15'5 0.5
2015-Jan-20 13:10N 22°13' E 114°18'711.3
2015-Jan-20 12:34N 22°18' E 114°13'0 0.1
2015-Jan-20 11:29N 22°18' E 114°13'0 0.0
2015-Jan-20 10:32N 22°18' E 114°13'0 0.0
2015-Jan-20 09:32N 22°18' E 114°13'0 0.0
2015-Jan-20 08:32N 22°18' E 114°13'  
Track history (hours):
 
Tides and Currents Weather Stations Pressure Air Temp Water Temp Dewpoint Dewpoint Depression Visibility Wind Speed Wind Dir Waves Ship Positions

Pongnae

Operator: V Ships Leisure SAM

Last reported at 2015-Jan-30 08:32 UTC. Time now 2015-Jan-30 09:26 UTC.
Position N 22°18' E 114°13'.

Length 171 m; draft 6.6 m.

Type: Passenger vessel. MMSI: 353669000.

Date/timePositionNaut miles runAvg speedWind from/ knotsBaromVisibWave heightAir tempDewpointWater temp
2015-Jan-30 08:32N 22°18' E 114°13'0 0.0
2015-Jan-30 07:31N 22°18' E 114°13'0 0.0
2015-Jan-30 06:31N 22°18' E 114°13'0 0.0
2015-Jan-30 05:31N 22°18' E 114°13'0 0.1
2015-Jan-30 04:31N 22°18' E 114°13'0 0.1
2015-Jan-30 03:31N 22°18' E 114°13'0 0.0
2015-Jan-30 02:31N 22°18' E 114°13'0 0.0
2015-Jan-30 01:31N 22°18' E 114°13'0 0.1
2015-Jan-30 00:31N 22°18' E 114°13'1 1.0
2015-Jan-29 23:34N 22°17' E 114°14'8 8.0
2015-Jan-29 22:31N 22°11' E 114°20'2 0.2
2015-Jan-29 13:14N 22°12' E 114°19'710.8
2015-Jan-29 12:33N 22°18' E 114°13'0 0.3
2015-Jan-29 11:31N 22°18' E 114°13'0 0.0
2015-Jan-29 10:31N 22°18' E 114°13'0 0.0
2015-Jan-29 09:31N 22°18' E 114°13'0 0.1
2015-Jan-29 08:31N 22°18' E 114°13'0 0.1
2015-Jan-29 07:31N 22°18' E 114°13'0 0.0
2015-Jan-29 06:28N 22°18' E 114°13'0 0.0
2015-Jan-29 05:31N 22°18' E 114°13'0 0.0
2015-Jan-29 04:31N 22°18' E 114°13'0 0.0
2015-Jan-29 03:31N 22°18' E 114°13'0 0.0
2015-Jan-29 02:31N 22°18' E 114°13'0 0.0
2015-Jan-29 01:31N 22°18' E 114°13'0 0.0
2015-Jan-29 00:31N 22°18' E 114°13'1 1.0
2015-Jan-28 23:33N 22°17' E 114°14'13 2.4
2015-Jan-28 18:07N 22°04' E 114°17'0 0.0
2015-Jan-28 16:24N 22°04' E 114°17'7 2.5
2015-Jan-28 13:26N 22°12' E 114°19'8 9.1
2015-Jan-28 12:33N 22°18' E 114°13'0 0.0
2015-Jan-28 11:33N 22°18' E 114°13'0 0.0
2015-Jan-28 10:32N 22°18' E 114°13'0 0.0
2015-Jan-28 09:32N 22°18' E 114°13'0 0.0
2015-Jan-28 08:32N 22°18' E 114°13'0 0.0
2015-Jan-28 07:32N 22°18' E 114°13'0 0.0
2015-Jan-28 06:32N 22°18' E 114°13'0 0.0
2015-Jan-28 05:32N 22°18' E 114°13'0 0.0
2015-Jan-28 04:32N 22°18' E 114°13'0 0.0
2015-Jan-28 03:32N 22°18' E 114°13'0 0.0
2015-Jan-28 02:32N 22°18' E 114°13'0 0.0
2015-Jan-28 01:32N 22°18' E 114°13'0 0.0
2015-Jan-28 00:32N 22°18' E 114°13'1 1.0
2015-Jan-27 23:33N 22°17' E 114°14'8 8.1
2015-Jan-27 22:33N 22°11' E 114°20'6 1.8
2015-Jan-27 19:26N 22°06' E 114°18'6 1.0
2015-Jan-27 13:09N 22°12' E 114°19'712.2
2015-Jan-27 12:33N 22°17' E 114°14'1 0.5
2015-Jan-27 11:31N 22°18' E 114°13'0 0.0
2015-Jan-27 10:31N 22°18' E 114°13'0 0.0
2015-Jan-27 09:31N 22°18' E 114°13'0 0.0
2015-Jan-27 08:31N 22°18' E 114°13'0 0.0
2015-Jan-27 07:31N 22°18' E 114°13'0 0.0
2015-Jan-27 06:31N 22°18' E 114°13'0 0.0
2015-Jan-27 05:31N 22°18' E 114°13'0 0.0
2015-Jan-27 04:31N 22°18' E 114°13'0 0.0
2015-Jan-27 03:31N 22°18' E 114°13'0 0.0
2015-Jan-27 02:31N 22°18' E 114°13'0 0.0
2015-Jan-27 01:31N 22°18' E 114°13'0 0.0
2015-Jan-27 00:31N 22°18' E 114°13'1 1.0
2015-Jan-26 23:33N 22°17' E 114°14'8 7.8
2015-Jan-26 22:31N 22°11' E 114°20'2 0.2
2015-Jan-26 13:08N 22°12' E 114°18'712.0
2015-Jan-26 12:33N 22°18' E 114°14'0 0.4
2015-Jan-26 11:32N 22°18' E 114°13'0 0.0
2015-Jan-26 10:32N 22°18' E 114°13'0 0.0
2015-Jan-26 09:32N 22°18' E 114°13'0 0.0
2015-Jan-26 08:32N 22°18' E 114°13'0 0.1
2015-Jan-26 07:32N 22°18' E 114°13'0 0.1
2015-Jan-26 06:32N 22°18' E 114°13'0 0.1
2015-Jan-26 05:32N 22°18' E 114°13'0 0.0
2015-Jan-26 04:32N 22°18' E 114°13'0 0.0
2015-Jan-26 03:32N 22°18' E 114°13'0 0.0
2015-Jan-26 02:32N 22°18' E 114°13'0 0.0
2015-Jan-26 01:32N 22°18' E 114°13'0 0.0
2015-Jan-26 00:32N 22°18' E 114°13'1 1.2
2015-Jan-25 23:33N 22°17' E 114°14'9 7.5
2015-Jan-25 22:24N 22°09' E 114°18'5 0.9
2015-Jan-25 17:22N 22°05' E 114°17'7 1.8
2015-Jan-25 13:25N 22°12' E 114°19'8 9.0
2015-Jan-25 12:32N 22°18' E 114°13'0 0.0
2015-Jan-25 11:32N 22°18' E 114°13'0 0.1
2015-Jan-25 10:32N 22°18' E 114°13'0 0.0
2015-Jan-25 09:32N 22°18' E 114°13'0 0.0
2015-Jan-25 08:32N 22°18' E 114°13'0 0.0
2015-Jan-25 07:29N 22°18' E 114°13'0 0.1
2015-Jan-25 06:32N 22°18' E 114°13'0 0.0
2015-Jan-25 05:32N 22°18' E 114°13'0 0.0
2015-Jan-25 04:32N 22°18' E 114°13'0 0.1
2015-Jan-25 03:32N 22°18' E 114°13'0 0.1
2015-Jan-25 02:32N 22°18' E 114°13'0 0.0
2015-Jan-25 01:32N 22°18' E 114°13'0 0.0
2015-Jan-25 00:32N 22°18' E 114°13'1 1.1
2015-Jan-24 23:33N 22°17' E 114°14'8 7.7
2015-Jan-24 22:32N 22°11' E 114°19'1 0.1
2015-Jan-24 13:21N 22°12' E 114°19'8 9.9
2015-Jan-24 12:33N 22°18' E 114°13'0 0.0
2015-Jan-24 11:33N 22°18' E 114°13'0 0.0
2015-Jan-24 10:33N 22°18' E 114°13'0 0.1
2015-Jan-24 09:33N 22°18' E 114°13'0 0.0
2015-Jan-24 08:33N 22°18' E 114°13'0 0.0
2015-Jan-24 07:33N 22°18' E 114°13'0 0.1
2015-Jan-24 06:33N 22°18' E 114°13'0 0.0
2015-Jan-24 05:33N 22°18' E 114°13'0 0.0
2015-Jan-24 04:32N 22°18' E 114°13'0 0.0
2015-Jan-24 03:32N 22°18' E 114°13'0 0.0
2015-Jan-24 02:32N 22°18' E 114°13'0 0.0
2015-Jan-24 01:32N 22°18' E 114°13'0 0.0
2015-Jan-24 00:32N 22°18' E 114°13'1 1.2
2015-Jan-23 23:33N 22°17' E 114°14'7 0.7
2015-Jan-23 13:27N 22°12' E 114°19'8 8.9
2015-Jan-23 12:33N 22°18' E 114°13'0 0.1
2015-Jan-23 11:33N 22°18' E 114°13'0 0.0
2015-Jan-23 10:33N 22°18' E 114°13'0 0.0
2015-Jan-23 09:33N 22°18' E 114°13'0 0.1
2015-Jan-23 08:33N 22°18' E 114°13'0 0.0
2015-Jan-23 07:33N 22°18' E 114°13'0 0.0
2015-Jan-23 06:33N 22°18' E 114°13'0 0.1
2015-Jan-23 05:33N 22°18' E 114°13'0 0.0
2015-Jan-23 04:33N 22°18' E 114°13'0 0.0
2015-Jan-23 03:30N 22°18' E 114°13'0 0.0
2015-Jan-23 02:33N 22°18' E 114°13'0 0.0
2015-Jan-23 01:33N 22°18' E 114°13'0 0.0
2015-Jan-23 00:33N 22°18' E 114°13'2 2.0
2015-Jan-22 23:33N 22°17' E 114°15'7 6.9
2015-Jan-22 22:30N 22°11' E 114°19'5 3.9
2015-Jan-22 21:10N 22°06' E 114°18'0 0.0
2015-Jan-22 19:19N 22°06' E 114°18'0 0.0
2015-Jan-22 18:25N 22°06' E 114°18'0 0.0
2015-Jan-22 14:16N 22°06' E 114°18'6 6.8
2015-Jan-22 13:22N 22°12' E 114°19'8 9.4
2015-Jan-22 12:31N 22°18' E 114°13'0 0.0
2015-Jan-22 11:31N 22°18' E 114°13'0 0.1
2015-Jan-22 10:31N 22°18' E 114°13'0 0.0
2015-Jan-22 09:31N 22°18' E 114°13'0 0.0
2015-Jan-22 08:31N 22°18' E 114°13'0 0.0
2015-Jan-22 07:31N 22°18' E 114°13'0 0.1
2015-Jan-22 06:31N 22°18' E 114°13'0 0.0
2015-Jan-22 05:31N 22°18' E 114°13'0 0.1
2015-Jan-22 04:31N 22°18' E 114°13'0 0.0
2015-Jan-22 03:31N 22°18' E 114°13'0 0.0
2015-Jan-22 02:31N 22°18' E 114°13'0 0.0
2015-Jan-22 01:31N 22°18' E 114°13'0 0.0
2015-Jan-22 00:31N 22°18' E 114°13'1 0.8
2015-Jan-21 23:33N 22°17' E 114°14'1 0.1
2015-Jan-21 12:31N 22°18' E 114°13'0 0.1
2015-Jan-21 11:31N 22°18' E 114°13'0 0.0
2015-Jan-21 10:31N 22°18' E 114°13'0 0.0
2015-Jan-21 09:33N 22°18' E 114°13'0 0.1
2015-Jan-21 08:33N 22°18' E 114°13'0 0.0
2015-Jan-21 07:33N 22°18' E 114°13'0 0.1
2015-Jan-21 06:33N 22°18' E 114°13'0 0.1
2015-Jan-21 05:33N 22°18' E 114°13'0 0.0
2015-Jan-21 04:33N 22°18' E 114°13'0 0.0
2015-Jan-21 03:33N 22°18' E 114°13'0 0.1
2015-Jan-21 02:33N 22°18' E 114°13'0 0.0
2015-Jan-21 01:33N 22°18' E 114°13'0 0.0
2015-Jan-21 00:33N 22°18' E 114°13'1 1.5
2015-Jan-20 23:33N 22°17' E 114°15'5 0.5
2015-Jan-20 13:10N 22°13' E 114°18'711.3
2015-Jan-20 12:34N 22°18' E 114°13'0 0.1
2015-Jan-20 11:29N 22°18' E 114°13'0 0.0
2015-Jan-20 10:32N 22°18' E 114°13'0 0.0
2015-Jan-20 09:32N 22°18' E 114°13'0 0.0
2015-Jan-20 08:32N 22°18' E 114°13'  

Dump ship's entire track history